Time;durP1;ratioP1;P1;durP2;ratioP2;P2;SDS_P1;SDS_P2;PMS_P1;PMS_P2;Temp;Humidity;BMP_temperature;BMP_pressure;BME280_temperature;BME280_humidity;BME280_pressure;Samples;Min_cycle;Max_cycle;Signal;HPM_P1;HPM_P2
2023/09/20 00:01:52;;;;;;;7.10;5.35;;;;;;;20.57;69.17;100026.66;5054520;28;20036;-66
2023/09/20 00:04:18;;;;;;;6.47;5.00;;;;;;;20.57;69.34;100026.66;5054441;28;20029;-65
2023/09/20 00:06:43;;;;;;;6.43;5.22;;;;;;;20.65;68.94;100018.28;5054771;28;20120;-64
2023/09/20 00:09:09;;;;;;;8.50;5.25;;;;;;;20.61;68.78;100022.47;5054434;28;20045;-64
2023/09/20 00:11:35;;;;;;;8.35;5.28;;;;;;;20.59;68.51;100013.78;5053995;28;20037;-64
2023/09/20 00:14:01;;;;;;;9.82;5.72;;;;;;;20.57;68.99;100005.13;5054567;28;20037;-64
2023/09/20 00:16:29;;;;;;;7.63;5.65;;;;;;;20.54;69.29;99994.81;5054510;28;20071;-64
2023/09/20 00:18:55;;;;;;;7.93;5.20;;;;;;;20.22;70.18;99983.25;5054407;28;20336;-66
2023/09/20 00:21:20;;;;;;;8.23;5.93;;;;;;;19.79;72.08;99969.69;5054683;28;20037;-64
2023/09/20 00:23:46;;;;;;;9.52;5.95;;;;;;;18.99;76.47;99950.41;5054437;28;20387;-66
2023/09/20 00:26:13;;;;;;;7.70;5.65;;;;;;;18.61;79.10;99952.91;5053991;28;20051;-64
2023/09/20 00:28:39;;;;;;;10.05;6.38;;;;;;;18.89;78.03;99950.03;5054493;28;20238;-66
2023/09/20 00:31:05;;;;;;;11.10;6.97;;;;;;;19.18;76.83;99936.09;5054500;28;20047;-66
2023/09/20 00:33:31;;;;;;;8.80;6.50;;;;;;;19.37;75.82;99928.97;5054430;28;20040;-66
2023/09/20 00:35:56;;;;;;;8.02;5.22;;;;;;;19.58;74.42;99931.38;5054358;28;20229;-66
2023/09/20 00:38:24;;;;;;;12.55;6.38;;;;;;;19.81;73.21;99930.84;5054132;28;20384;-66
2023/09/20 00:40:49;;;;;;;7.50;6.00;;;;;;;19.97;72.22;99930.28;5054513;28;20043;-66
2023/09/20 00:43:22;;;;;;;9.35;5.78;;;;;;;20.16;71.24;99933.88;5055212;28;20037;-66
2023/09/20 00:45:48;;;;;;;7.67;5.50;;;;;;;20.29;70.81;99935.63;5054456;28;20044;-64
2023/09/20 00:48:14;;;;;;;8.27;5.80;;;;;;;20.41;70.14;99925.81;5054104;28;20270;-65
2023/09/20 00:50:42;;;;;;;7.82;6.07;;;;;;;20.53;69.45;99929.41;5055092;28;20219;-64
2023/09/20 00:53:13;;;;;;;8.05;5.82;;;;;;;20.58;69.00;99931.44;5074225;28;20032;-64
2023/09/20 00:55:39;;;;;;;7.15;5.60;;;;;;;20.53;68.97;99929.41;5075294;28;20259;-64
2023/09/20 00:58:09;;;;;;;7.32;6.60;;;;;;;20.51;69.26;99936.88;5078505;28;20129;-66
2023/09/20 01:00:37;;;;;;;8.48;6.10;;;;;;;20.47;69.59;99933.00;5078982;28;20219;-65
2023/09/20 01:03:04;;;;;;;9.07;5.75;;;;;;;20.44;69.74;99927.22;5078260;28;20060;-65
2023/09/20 01:05:34;;;;;;;7.40;5.60;;;;;;;20.34;69.75;99928.53;5077406;28;20040;-64
2023/09/20 01:08:01;;;;;;;7.30;5.93;;;;;;;20.23;70.16;99942.69;5077694;28;20098;-66
2023/09/20 01:10:27;;;;;;;8.00;5.55;;;;;;;20.21;70.57;99933.19;5077563;28;20433;-66
2023/09/20 01:12:54;;;;;;;8.73;5.82;;;;;;;20.00;71.44;99929.03;5077300;28;20257;-66
2023/09/20 01:15:21;;;;;;;8.38;6.10;;;;;;;19.96;71.68;99925.97;5078080;28;20036;-64
2023/09/20 01:17:48;;;;;;;7.57;6.03;;;;;;;20.10;71.01;99942.81;5077451;28;20033;-64
2023/09/20 01:20:18;;;;;;;8.40;5.57;;;;;;;20.16;70.43;99941.09;5077483;28;20036;-66
2023/09/20 01:22:50;;;;;;;7.50;5.68;;;;;;;20.18;70.48;99933.66;5077364;28;20260;-66
2023/09/20 01:25:31;;;;;;;8.25;5.70;;;;;;;20.20;70.62;99931.56;5076788;28;20059;-66
2023/09/20 01:27:58;;;;;;;7.93;5.60;;;;;;;20.19;71.52;99932.59;5077365;28;20036;-66
2023/09/20 01:30:26;;;;;;;7.88;5.78;;;;;;;20.02;72.17;99922.41;5077466;28;20300;-64
2023/09/20 01:33:04;;;;;;;7.50;5.88;;;;;;;20.04;72.19;99928.38;5076912;28;20036;-66
2023/09/20 01:35:31;;;;;;;7.38;5.38;;;;;;;20.09;71.27;99933.91;5076783;28;20056;-64
2023/09/20 01:37:56;;;;;;;7.28;5.53;;;;;;;20.22;70.72;99938.38;5077460;28;20043;-64
2023/09/20 01:40:25;;;;;;;8.00;5.57;;;;;;;20.32;70.05;99936.00;5076595;28;20282;-66
2023/09/20 01:42:52;;;;;;;21.63;7.95;;;;;;;20.32;70.15;99937.88;5076644;28;20074;-64
2023/09/20 01:45:18;;;;;;;7.68;5.50;;;;;;;20.28;69.83;99948.25;5076764;28;20990;-66
2023/09/20 01:47:49;;;;;;;8.05;5.88;;;;;;;20.28;69.55;99942.03;5076403;28;20334;-66
2023/09/20 01:50:25;;;;;;;14.20;6.35;;;;;;;20.30;70.01;99937.25;5076753;28;20082;-66
2023/09/20 01:52:55;;;;;;;9.77;5.97;;;;;;;20.37;69.40;99944.22;5076363;28;20120;-64
2023/09/20 01:55:22;;;;;;;12.10;5.85;;;;;;;20.33;69.55;99953.78;5076297;28;20062;-64
2023/09/20 01:57:50;;;;;;;10.10;6.05;;;;;;;20.37;69.95;99941.53;5076458;28;20043;-66
2023/09/20 02:00:29;;;;;;;8.18;5.43;;;;;;;20.33;70.35;99943.03;5076654;28;20064;-64
2023/09/20 02:02:57;;;;;;;13.02;7.38;;;;;;;20.20;70.94;99942.31;5076406;28;20047;-66
2023/09/20 02:05:26;;;;;;;9.75;5.97;;;;;;;19.92;71.89;99934.69;5076449;28;20032;-66
2023/09/20 02:07:53;;;;;;;10.93;5.70;;;;;;;19.69;73.24;99948.66;5075487;28;20067;-66
2023/09/20 02:10:21;;;;;;;8.80;6.22;;;;;;;19.59;74.49;99945.63;5076345;28;20025;-63
2023/09/20 02:12:51;;;;;;;8.20;5.90;;;;;;;19.50;75.64;99952.25;5076114;28;20039;-66
2023/09/20 02:15:17;;;;;;;10.13;6.35;;;;;;;19.41;76.51;99946.31;5076098;28;20392;-66
2023/09/20 02:17:44;;;;;;;10.15;6.63;;;;;;;19.40;77.05;99947.34;5075849;28;20486;-66
2023/09/20 02:20:12;;;;;;;28.95;8.05;;;;;;;19.42;77.06;99947.94;5076512;28;20070;-64
2023/09/20 02:22:39;;;;;;;10.15;6.70;;;;;;;19.42;77.10;99948.78;5077049;28;20068;-66
2023/09/20 02:25:12;;;;;;;9.25;6.50;;;;;;;19.39;77.34;99943.00;5076009;28;20040;-64
2023/09/20 02:27:44;;;;;;;15.77;7.07;;;;;;;19.35;77.71;99949.84;5076058;28;20037;-64
2023/09/20 02:30:14;;;;;;;8.50;6.18;;;;;;;19.17;78.61;99950.53;5076043;28;20036;-66
2023/09/20 02:32:44;;;;;;;9.23;5.97;;;;;;;18.77;80.51;99944.50;5076054;28;20446;-66
2023/09/20 02:35:10;;;;;;;10.27;6.13;;;;;;;18.78;80.85;99948.81;5075527;28;20029;-63
2023/09/20 02:37:37;;;;;;;10.02;5.60;;;;;;;18.88;80.38;99951.88;5076110;28;20044;-64
2023/09/20 02:40:24;;;;;;;7.25;5.75;;;;;;;18.93;80.18;99949.41;5075865;28;20033;-64
2023/09/20 02:42:53;;;;;;;8.52;5.43;;;;;;;18.88;80.55;99951.88;5074859;28;20154;-64
2023/09/20 02:45:20;;;;;;;7.95;5.35;;;;;;;18.90;82.06;99949.00;5075648;28;20045;-65
2023/09/20 02:47:46;;;;;;;9.43;5.45;;;;;;;18.98;81.74;99946.06;5075817;28;20060;-64
2023/09/20 02:50:14;;;;;;;8.63;5.68;;;;;;;19.16;81.75;99956.13;5075589;28;20043;-66
2023/09/20 02:52:40;;;;;;;9.32;5.65;;;;;;;19.30;82.51;99952.34;5066763;28;20049;-66
2023/09/20 02:55:12;;;;;;;10.07;5.90;;;;;;;19.41;82.40;99957.03;5055056;28;20056;-66
2023/09/20 02:57:37;;;;;;;8.20;5.30;;;;;;;19.54;82.41;99956.19;5055429;28;20047;-65
2023/09/20 03:00:16;;;;;;;7.60;5.47;;;;;;;19.60;81.13;99960.69;5055483;28;20036;-64
2023/09/20 03:02:47;;;;;;;10.52;5.95;;;;;;;19.68;80.29;99963.13;5054443;28;20048;-65
2023/09/20 03:05:15;;;;;;;9.30;5.68;;;;;;;19.76;79.02;99952.13;5056217;28;20071;-64
2023/09/20 03:07:44;;;;;;;8.93;6.13;;;;;;;19.85;78.14;99958.09;5057356;28;20064;-66
2023/09/20 03:10:12;;;;;;;8.32;5.60;;;;;;;19.86;78.09;99949.00;5053808;28;20394;-64
2023/09/20 03:12:51;;;;;;;8.55;6.07;;;;;;;19.97;77.19;99959.03;5055893;28;20052;-64
2023/09/20 03:15:19;;;;;;;8.73;5.88;;;;;;;20.03;76.37;99961.69;5055611;28;20404;-66
2023/09/20 03:17:44;;;;;;;9.30;5.78;;;;;;;20.04;75.13;99957.94;5056132;28;20060;-63
2023/09/20 03:20:11;;;;;;;8.70;5.90;;;;;;;20.04;75.13;99955.25;5056857;28;20040;-64
2023/09/20 03:22:39;;;;;;;6.22;5.53;;;;;;;20.00;75.50;99956.75;5056094;28;20033;-64
2023/09/20 03:25:09;;;;;;;8.02;5.78;;;;;;;19.96;75.89;99966.28;5055863;28;20042;-63
2023/09/20 03:27:35;;;;;;;8.52;6.07;;;;;;;20.00;75.60;99964.81;5055641;28;20350;-66
2023/09/20 03:30:01;;;;;;;10.90;5.93;;;;;;;19.99;75.07;99960.47;5055776;28;20071;-66
2023/09/20 03:32:27;;;;;;;9.32;5.85;;;;;;;19.97;75.14;99970.59;5024704;28;20243;-64
2023/09/20 03:34:55;;;;;;;10.07;6.80;;;;;;;19.94;75.24;99960.28;5054124;28;20036;-65
2023/09/20 03:37:21;;;;;;;9.00;6.47;;;;;;;19.86;75.75;99959.75;5055737;28;20108;-64
2023/09/20 03:39:48;;;;;;;8.30;6.57;;;;;;;19.80;75.64;99965.97;5055447;28;20036;-66
2023/09/20 03:42:13;;;;;;;160.43;20.88;;;;;;;19.85;75.94;99971.53;5054162;28;20041;-65
2023/09/20 03:44:39;;;;;;;25.80;7.68;;;;;;;19.88;75.97;99973.78;5055244;28;20115;-64
2023/09/20 03:47:06;;;;;;;14.23;6.78;;;;;;;19.82;76.34;99974.66;5055856;28;20362;-66
2023/09/20 03:49:31;;;;;;;74.05;11.45;;;;;;;19.78;75.26;99971.56;5055570;28;20422;-64
2023/09/20 03:52:00;;;;;;;15.48;7.30;;;;;;;19.72;76.22;99980.47;5063907;28;20056;-66
2023/09/20 03:54:25;;;;;;;9.05;6.63;;;;;;;19.72;76.38;99983.97;5075338;28;20067;-66
2023/09/20 03:56:51;;;;;;;12.55;7.10;;;;;;;19.71;76.77;99973.44;5074989;28;20043;-63
2023/09/20 03:59:17;;;;;;;30.63;9.02;;;;;;;19.74;76.16;99967.63;5075465;28;20337;-64
2023/09/20 04:01:43;;;;;;;78.20;14.10;;;;;;;19.65;75.13;99968.94;5076471;28;20040;-63
2023/09/20 04:04:08;;;;;;;69.95;13.38;;;;;;;19.54;75.38;99974.97;5075457;28;20305;-64
2023/09/20 04:06:35;;;;;;;66.13;12.98;;;;;;;19.56;75.73;99973.72;5075436;28;20127;-66
2023/09/20 04:09:09;;;;;;;69.30;12.40;;;;;;;19.52;75.43;99977.03;5075346;28;20438;-63
2023/09/20 04:11:37;;;;;;;43.13;10.48;;;;;;;19.51;76.99;99983.44;5075051;28;20063;-65
2023/09/20 04:14:03;;;;;;;45.72;11.07;;;;;;;19.48;77.78;99984.69;5075433;28;20036;-63
2023/09/20 04:16:28;;;;;;;44.85;12.00;;;;;;;19.51;77.55;99983.44;5075330;28;20083;-64
2023/09/20 04:18:54;;;;;;;29.10;9.48;;;;;;;19.49;77.70;99980.97;5075401;28;20324;-66
2023/09/20 04:21:20;;;;;;;20.95;8.70;;;;;;;19.49;78.29;99985.50;5057046;28;20053;-66
2023/09/20 04:23:46;;;;;;;17.95;8.48;;;;;;;19.49;78.91;99983.66;5075001;28;20047;-65
2023/09/20 04:26:11;;;;;;;11.85;7.60;;;;;;;19.39;79.84;99988.66;5075063;28;20036;-66
2023/09/20 04:28:37;;;;;;;22.50;7.63;;;;;;;19.40;78.88;99990.31;5075245;28;20050;-66
2023/09/20 04:31:03;;;;;;;20.15;9.10;;;;;;;19.31;79.97;100003.16;5075837;28;20038;-66
2023/09/20 04:33:29;;;;;;;27.65;8.80;;;;;;;19.28;80.68;99992.84;5078078;28;20047;-64
2023/09/20 04:35:57;;;;;;;48.20;11.05;;;;;;;19.32;80.68;99993.22;5078972;28;20029;-66
2023/09/20 04:38:23;;;;;;;36.50;9.68;;;;;;;19.36;80.08;99992.59;5078358;28;20033;-66
2023/09/20 04:40:48;;;;;;;46.05;10.02;;;;;;;19.37;78.92;99982.69;5079125;28;20039;-66
2023/09/20 04:43:14;;;;;;;67.15;12.98;;;;;;;19.38;77.17;99989.69;5078989;28;20048;-66
2023/09/20 04:45:40;;;;;;;369.25;44.05;;;;;;;19.41;77.39;99994.63;5079076;28;20127;-66
2023/09/20 04:48:06;;;;;;;187.70;25.23;;;;;;;19.43;77.78;99988.03;5079426;28;20040;-64
2023/09/20 04:50:33;;;;;;;66.05;12.45;;;;;;;19.41;77.04;99986.59;5079927;28;20340;-66
2023/09/20 04:52:59;;;;;;;30.00;8.48;;;;;;;19.41;76.66;99989.25;5078878;28;20088;-66
2023/09/20 04:55:25;;;;;;;34.15;9.55;;;;;;;19.40;76.47;99988.44;5078872;28;20025;-66
2023/09/20 04:57:50;;;;;;;50.72;10.85;;;;;;;19.41;77.46;99989.25;5078425;28;20040;-66
2023/09/20 05:00:20;;;;;;;104.80;15.63;;;;;;;19.47;77.88;99999.16;5078617;28;20032;-66
2023/09/20 05:02:46;;;;;;;63.40;12.23;;;;;;;19.39;78.96;100002.91;5078877;28;20056;-64
2023/09/20 05:05:12;;;;;;;20.23;8.48;;;;;;;19.48;80.03;99997.28;5078719;28;20435;-66
2023/09/20 05:07:38;;;;;;;16.88;7.75;;;;;;;19.58;80.25;100001.19;5078577;28;20108;-66
2023/09/20 05:10:03;;;;;;;10.68;7.57;;;;;;;19.68;80.22;100014.16;5078294;28;20070;-64
2023/09/20 05:12:29;;;;;;;15.82;7.93;;;;;;;19.80;80.22;100011.66;5078595;28;20033;-64
2023/09/20 05:14:54;;;;;;;15.32;6.97;;;;;;;19.90;79.29;100017.38;5078162;28;20051;-64
2023/09/20 05:17:20;;;;;;;16.08;6.80;;;;;;;19.89;79.50;100013.06;5078402;28;20040;-66
2023/09/20 05:19:46;;;;;;;15.23;7.32;;;;;;;20.04;78.61;100019.78;5078069;28;20059;-64
2023/09/20 05:22:12;;;;;;;13.95;7.15;;;;;;;20.02;77.43;100010.28;5069421;28;20086;-64
2023/09/20 05:24:37;;;;;;;10.27;6.88;;;;;;;20.05;77.28;100010.66;5078303;28;20032;-66
2023/09/20 05:27:03;;;;;;;12.75;7.10;;;;;;;20.04;76.92;100011.72;5078057;28;20211;-64
2023/09/20 05:29:28;;;;;;;11.25;6.28;;;;;;;20.03;76.71;100030.75;5078051;28;20385;-66
2023/09/20 05:31:55;;;;;;;15.35;6.95;;;;;;;20.08;76.45;100026.38;5078055;28;20029;-66
2023/09/20 05:34:21;;;;;;;15.45;7.13;;;;;;;20.21;76.26;100028.13;5077990;28;20338;-64
2023/09/20 05:36:51;;;;;;;14.27;6.90;;;;;;;20.30;75.73;100029.50;5077688;28;20032;-64
2023/09/20 05:39:17;;;;;;;14.70;6.40;;;;;;;20.43;75.75;100027.78;5077907;28;20562;-64
2023/09/20 05:41:43;;;;;;;11.20;6.45;;;;;;;20.52;75.39;100029.16;5077929;28;20127;-66
2023/09/20 05:44:10;;;;;;;12.05;6.90;;;;;;;20.66;74.84;100031.53;5078396;28;20250;-64
2023/09/20 05:46:35;;;;;;;10.63;6.43;;;;;;;20.76;73.59;100028.31;5078197;28;20131;-66
2023/09/20 05:49:02;;;;;;;10.70;7.00;;;;;;;20.89;73.62;100039.00;5077989;28;20055;-64
2023/09/20 05:51:28;;;;;;;18.23;6.82;;;;;;;21.11;74.06;100041.25;5077475;28;20057;-64
2023/09/20 05:53:54;;;;;;;11.35;5.70;;;;;;;21.34;73.11;100038.75;5077978;28;20037;-66
2023/09/20 05:56:19;;;;;;;10.50;6.30;;;;;;;21.53;71.33;100040.38;5078201;28;20274;-66
2023/09/20 05:58:45;;;;;;;7.38;5.90;;;;;;;21.74;69.24;100035.56;5077990;28;20040;-66
2023/09/20 06:01:12;;;;;;;11.13;6.70;;;;;;;21.94;67.78;100044.25;5078148;28;20098;-64
2023/09/20 06:03:39;;;;;;;9.25;6.43;;;;;;;21.86;69.11;100037.28;5078343;28;20326;-65
2023/09/20 06:06:07;;;;;;;8.77;6.13;;;;;;;22.02;69.14;100043.91;5078466;28;20031;-65
2023/09/20 06:08:35;;;;;;;10.73;6.50;;;;;;;22.22;66.91;100040.94;5078097;28;20040;-65
2023/09/20 06:11:04;;;;;;;9.40;6.20;;;;;;;22.40;65.98;100043.56;5078453;28;20047;-65
2023/09/20 06:13:32;;;;;;;11.73;6.22;;;;;;;22.62;65.46;100041.13;5077251;28;20048;-65
2023/09/20 06:15:58;;;;;;;9.00;6.32;;;;;;;22.74;64.89;100038.44;5077398;28;20338;-65
2023/09/20 06:18:24;;;;;;;9.45;6.38;;;;;;;22.85;61.81;100048.44;5077620;28;20047;-64
2023/09/20 06:20:51;;;;;;;12.93;6.07;;;;;;;22.89;63.68;100049.66;5077038;28;20024;-65
2023/09/20 06:23:20;;;;;;;9.02;6.63;;;;;;;22.98;62.98;100045.53;5075826;28;20384;-64
2023/09/20 06:25:49;;;;;;;10.75;6.43;;;;;;;23.12;60.89;100049.66;5077058;28;20048;-65
2023/09/20 06:28:15;;;;;;;8.30;6.25;;;;;;;23.21;61.27;100047.41;5077031;28;20040;-65
2023/09/20 06:30:44;;;;;;;8.65;6.20;;;;;;;23.33;61.94;100048.19;5076849;28;20020;-66
2023/09/20 06:33:10;;;;;;;8.90;6.28;;;;;;;23.50;61.35;100051.81;5077047;28;20047;-66
2023/09/20 06:35:45;;;;;;;7.35;5.90;;;;;;;23.48;60.80;100056.63;5076644;28;20070;-66
2023/09/20 06:38:10;;;;;;;14.52;6.95;;;;;;;23.61;60.34;100058.28;5076970;28;20044;-64
2023/09/20 06:40:39;;;;;;;10.00;7.80;;;;;;;23.82;58.48;100054.09;5076402;28;20249;-66
2023/09/20 06:43:07;;;;;;;18.88;8.27;;;;;;;23.89;58.41;100057.47;5076820;28;20040;-66
2023/09/20 06:45:33;;;;;;;11.27;7.47;;;;;;;24.01;60.46;100052.03;5076662;28;20032;-65
2023/09/20 06:47:58;;;;;;;19.38;8.85;;;;;;;24.18;57.96;100052.88;5076904;28;20100;-64
2023/09/20 06:50:24;;;;;;;32.58;9.45;;;;;;;24.29;57.56;100052.03;5076650;28;20032;-66
2023/09/20 06:52:51;;;;;;;15.68;8.40;;;;;;;24.47;57.04;100056.41;5076155;28;20053;-66
2023/09/20 06:55:18;;;;;;;11.70;7.95;;;;;;;24.51;55.98;100054.84;5075494;28;20421;-66
2023/09/20 06:57:47;;;;;;;11.07;7.70;;;;;;;24.48;55.38;100058.03;5075959;28;20043;-66
2023/09/20 07:00:19;;;;;;;8.52;6.20;;;;;;;24.39;56.76;100062.22;5075369;28;20036;-65
2023/09/20 07:02:46;;;;;;;7.45;5.53;;;;;;;24.50;56.74;100059.44;5075285;28;20392;-64
2023/09/20 07:05:13;;;;;;;16.90;6.50;;;;;;;24.41;57.09;100060.91;5075383;28;20059;-64
2023/09/20 07:07:39;;;;;;;10.88;5.47;;;;;;;24.56;56.44;100062.22;5075269;28;20037;-66
2023/09/20 07:10:05;;;;;;;9.45;5.82;;;;;;;24.69;56.97;100065.41;5075304;28;20032;-66
2023/09/20 07:12:34;;;;;;;8.48;5.70;;;;;;;24.72;57.24;100062.22;5075084;28;20040;-65
2023/09/20 07:15:00;;;;;;;25.17;7.32;;;;;;;24.84;56.77;100060.25;5075343;28;20036;-66
2023/09/20 07:17:25;;;;;;;7.75;5.63;;;;;;;24.86;55.88;100056.47;5074993;28;20036;-66
2023/09/20 07:19:52;;;;;;;9.32;5.63;;;;;;;25.09;56.30;100053.63;5075146;28;20032;-66
2023/09/20 07:22:17;;;;;;;11.07;6.32;;;;;;;25.03;56.18;100052.72;5075498;28;20052;-66
2023/09/20 07:24:45;;;;;;;7.88;4.95;;;;;;;25.13;55.41;100047.44;5074978;28;20097;-64
2023/09/20 07:27:12;;;;;;;9.18;5.90;;;;;;;25.13;56.54;100052.88;5075084;28;20068;-65
2023/09/20 07:29:40;;;;;;;7.55;5.95;;;;;;;25.29;56.28;100061.19;5074941;28;20255;-64
2023/09/20 07:32:05;;;;;;;8.00;5.95;;;;;;;25.37;55.39;100055.34;5075004;28;20028;-64
2023/09/20 07:34:33;;;;;;;11.25;7.38;;;;;;;25.52;55.35;100062.84;5075009;28;20070;-66
2023/09/20 07:36:59;;;;;;;10.18;6.80;;;;;;;25.38;54.91;100056.97;5075024;28;20032;-64
2023/09/20 07:39:25;;;;;;;10.02;6.15;;;;;;;25.50;55.58;100054.97;5074879;28;20040;-67
2023/09/20 07:41:50;;;;;;;9.98;7.30;;;;;;;25.59;55.13;100052.63;5074501;28;20036;-66
2023/09/20 07:44:23;;;;;;;10.70;6.55;;;;;;;25.69;55.33;100059.03;5074606;28;20054;-64
2023/09/20 07:46:49;;;;;;;8.07;6.20;;;;;;;25.66;55.57;100054.09;5074578;28;20354;-66
2023/09/20 07:49:16;;;;;;;9.98;8.98;;;;;;;25.69;55.76;100064.44;5074778;28;20517;-66
2023/09/20 07:51:41;;;;;;;9.55;6.00;;;;;;;25.80;54.97;100061.84;5068172;28;20532;-66
2023/09/20 07:54:10;;;;;;;11.40;6.22;;;;;;;25.91;55.11;100063.59;5054656;28;20041;-65
2023/09/20 07:56:36;;;;;;;7.47;5.85;;;;;;;26.02;55.18;100052.63;5054903;28;20029;-66
2023/09/20 07:59:05;;;;;;;10.43;5.70;;;;;;;26.12;55.55;100056.53;5054841;28;20044;-66
2023/09/20 08:01:33;;;;;;;11.77;6.22;;;;;;;26.19;54.80;100063.38;5054742;28;20048;-66
2023/09/20 08:03:59;;;;;;;6.93;5.32;;;;;;;26.31;55.22;100057.78;5054842;28;20091;-64
2023/09/20 08:06:33;;;;;;;9.43;5.07;;;;;;;26.14;53.57;100048.94;5055543;28;20334;-64
2023/09/20 08:08:59;;;;;;;6.28;5.32;;;;;;;26.24;53.45;100052.56;5059372;28;20037;-65
2023/09/20 08:11:28;;;;;;;11.25;5.43;;;;;;;26.30;53.97;100053.44;5058623;28;20040;-64
2023/09/20 08:13:59;;;;;;;12.45;5.50;;;;;;;26.36;53.65;100047.00;5058736;28;20215;-64
2023/09/20 08:16:27;;;;;;;15.95;5.90;;;;;;;26.51;54.17;100046.31;5057733;28;20056;-66
2023/09/20 08:19:21;;;;;;;8.23;5.43;;;;;;;26.46;54.09;100047.09;5058529;28;20055;-66
2023/09/20 08:21:47;;;;;;;9.77;5.53;;;;;;;26.55;53.14;100044.72;5057723;28;20064;-65
2023/09/20 09:00:27;;;;;;;7.00;5.22;;;;;;;26.98;50.83;99992.88;5078886;28;20373;-65
2023/09/20 09:02:57;;;;;;;6.63;5.20;;;;;;;27.09;49.71;99990.25;5080051;28;20036;-67
2023/09/20 09:05:27;;;;;;;6.68;4.88;;;;;;;27.04;48.67;99985.56;5079021;28;20044;-67
2023/09/20 09:07:54;;;;;;;7.97;5.28;;;;;;;27.01;49.18;99988.81;5079328;28;20036;-66
2023/09/20 09:10:20;;;;;;;8.55;5.30;;;;;;;26.88;49.26;99981.09;5079420;28;20405;-64
2023/09/20 09:12:45;;;;;;;13.05;5.35;;;;;;;26.74;50.20;99983.47;5079558;28;20048;-64
2023/09/20 09:15:12;;;;;;;7.32;5.07;;;;;;;26.55;49.56;99983.06;5079521;28;20029;-67
2023/09/20 09:17:47;;;;;;;9.20;5.57;;;;;;;26.54;50.78;99984.16;5078643;28;20040;-64
2023/09/20 09:20:14;;;;;;;60.40;9.95;;;;;;;26.48;50.29;99976.25;5077528;28;20044;-66
2023/09/20 09:22:41;;;;;;;40.25;8.93;;;;;;;26.49;50.16;99984.13;5078605;28;20143;-64
2023/09/20 09:25:25;;;;;;;7.60;5.13;;;;;;;26.32;50.16;99973.41;5079463;28;20039;-67
2023/09/20 09:27:50;;;;;;;7.47;5.40;;;;;;;26.34;50.24;99970.44;5078989;28;20330;-65
2023/09/20 09:30:17;;;;;;;44.58;9.70;;;;;;;26.30;50.59;99964.69;5079164;28;20047;-65
2023/09/20 09:32:45;;;;;;;8.65;5.50;;;;;;;26.23;50.57;99961.38;5077576;28;20043;-65
2023/09/20 09:35:12;;;;;;;13.27;5.65;;;;;;;26.33;50.13;99960.66;5078117;28;20059;-64
2023/09/20 09:37:39;;;;;;;18.23;6.38;;;;;;;26.35;51.99;99961.22;5076010;28;20040;-65
2023/09/20 09:40:06;;;;;;;7.25;5.38;;;;;;;26.37;50.55;99959.88;5076684;28;20086;-65
2023/09/20 09:42:32;;;;;;;6.75;5.57;;;;;;;26.40;51.93;99961.25;5077683;28;20040;-66
2023/09/20 09:45:04;;;;;;;8.50;5.55;;;;;;;26.43;52.10;99958.00;5077190;28;20067;-65
2023/09/20 09:47:30;;;;;;;7.47;5.38;;;;;;;26.52;51.02;99958.34;5076947;28;20037;-66
2023/09/20 09:49:58;;;;;;;8.98;4.72;;;;;;;26.50;50.69;99952.34;5077234;28;20287;-66
2023/09/20 09:52:23;;;;;;;7.53;5.20;;;;;;;26.56;49.90;99951.31;5071934;28;20052;-66
2023/09/20 09:54:50;;;;;;;11.40;5.10;;;;;;;26.60;50.78;99955.94;5056459;28;20051;-66
2023/09/20 09:57:18;;;;;;;11.57;5.65;;;;;;;26.64;49.22;99948.91;5056520;28;20108;-64
2023/09/20 09:59:45;;;;;;;7.43;4.95;;;;;;;26.60;47.59;99942.38;5056333;28;20032;-64
2023/09/20 10:02:21;;;;;;;7.25;5.53;;;;;;;26.61;49.86;99938.56;5056432;28;20086;-66
2023/09/20 10:04:59;;;;;;;7.28;5.32;;;;;;;26.70;50.68;99939.72;5056027;28;20039;-67
2023/09/20 10:07:31;;;;;;;6.68;5.03;;;;;;;26.81;50.39;99940.59;5056669;28;20049;-64
2023/09/20 10:10:08;;;;;;;7.63;4.93;;;;;;;26.81;47.47;99937.88;5055908;28;20036;-67
2023/09/20 10:12:36;;;;;;;6.13;4.80;;;;;;;26.81;47.16;99940.59;5057414;28;20098;-66
2023/09/20 10:15:07;;;;;;;5.47;4.90;;;;;;;26.76;48.54;99939.75;5055915;28;20028;-64
2023/09/20 10:17:34;;;;;;;6.10;4.97;;;;;;;26.79;49.49;99928.34;5056289;28;20235;-67
2023/09/20 10:20:03;;;;;;;7.35;4.82;;;;;;;26.81;49.21;99929.72;5056193;28;20242;-65
2023/09/20 10:22:30;;;;;;;7.53;5.15;;;;;;;26.83;48.69;99924.84;5055035;28;20075;-64
2023/09/20 10:25:00;;;;;;;7.30;5.15;;;;;;;26.85;48.53;99927.28;5055035;28;20302;-64
2023/09/20 10:27:30;;;;;;;7.22;5.55;;;;;;;26.89;46.84;99923.78;5055945;28;20041;-66
2023/09/20 10:30:02;;;;;;;384.50;44.80;;;;;;;26.93;47.32;99919.44;5053641;28;20029;-66
2023/09/20 10:32:48;;;;;;;9.40;5.32;;;;;;;26.98;46.31;99910.53;5056159;28;20230;-66
2023/09/20 10:35:21;;;;;;;5.50;4.88;;;;;;;26.95;46.37;99911.84;5054989;28;20118;-64
2023/09/20 10:37:56;;;;;;;7.10;5.22;;;;;;;26.96;45.51;99904.53;5055351;28;20048;-67
2023/09/20 10:40:22;;;;;;;7.18;5.50;;;;;;;27.00;45.88;99901.03;5055388;28;20036;-64
2023/09/20 10:42:51;;;;;;;6.97;5.05;;;;;;;26.99;47.34;99893.97;5055580;28;20064;-64
2023/09/20 10:45:17;;;;;;;8.45;4.90;;;;;;;26.95;46.13;99892.84;5054007;28;20045;-67
2023/09/20 10:47:49;;;;;;;17.20;5.80;;;;;;;27.00;45.19;99883.91;5055483;28;20395;-65
2023/09/20 10:50:47;;;;;;;6.22;4.25;;;;;;;27.03;44.08;99892.34;5055138;28;20322;-64
2023/09/20 10:53:12;;;;;;;44.45;8.98;;;;;;;27.09;44.02;99889.69;5076574;28;20110;-64
2023/09/20 10:55:38;;;;;;;12.95;4.72;;;;;;;27.15;45.16;99883.19;5075285;28;20043;-64
2023/09/20 10:58:05;;;;;;;17.17;5.47;;;;;;;27.16;44.70;99882.91;5075442;28;20035;-66
2023/09/20 11:00:35;;;;;;;4.95;4.30;;;;;;;27.15;45.18;99888.63;5074500;28;20304;-64
2023/09/20 11:03:04;;;;;;;4.53;4.13;;;;;;;27.17;45.21;99892.69;5074493;28;20037;-66
2023/09/20 11:05:30;;;;;;;6.80;4.15;;;;;;;27.17;44.06;99889.16;5074664;28;20032;-66
2023/09/20 11:07:58;;;;;;;4.88;3.60;;;;;;;27.22;43.45;99895.44;5074872;28;20040;-65
2023/09/20 11:10:24;;;;;;;5.40;3.50;;;;;;;27.28;42.41;99894.34;5074752;28;20230;-64
2023/09/20 11:12:54;;;;;;;4.63;3.22;;;;;;;27.33;41.42;99885.41;5075322;28;20041;-64
2023/09/20 11:15:20;;;;;;;5.65;2.78;;;;;;;27.36;40.09;99887.56;5074517;28;20020;-64
2023/09/20 11:17:47;;;;;;;6.45;2.90;;;;;;;27.38;40.06;99877.25;5074929;28;20691;-65
2023/09/20 11:20:12;;;;;;;5.28;3.00;;;;;;;27.42;39.96;99866.66;5073407;28;20074;-67
2023/09/20 11:22:38;;;;;;;5.28;2.78;;;;;;;27.55;38.71;99877.00;5074754;28;20044;-66
2023/09/20 11:25:04;;;;;;;6.97;2.40;;;;;;;27.56;38.93;99870.47;5074647;28;20395;-66
2023/09/20 11:27:34;;;;;;;9.30;3.13;;;;;;;27.53;39.30;99863.66;5075147;28;20403;-65
2023/09/20 11:30:04;;;;;;;5.68;3.20;;;;;;;27.60;40.32;99863.41;5074585;28;20222;-64
2023/09/20 11:32:30;;;;;;;5.65;2.97;;;;;;;27.55;40.55;99850.63;5074916;28;20097;-66
2023/09/20 11:34:55;;;;;;;64.70;10.65;;;;;;;27.51;42.62;99854.97;5074521;28;20060;-66
2023/09/20 11:37:22;;;;;;;5.63;3.70;;;;;;;27.47;42.23;99848.44;5074314;28;20048;-67
2023/09/20 11:39:53;;;;;;;5.97;4.40;;;;;;;27.42;43.22;99844.91;5074265;28;20032;-67
2023/09/20 11:42:27;;;;;;;25.65;6.32;;;;;;;27.52;41.28;99845.72;5074464;28;20032;-64
2023/09/20 11:45:03;;;;;;;5.88;3.60;;;;;;;27.51;41.47;99844.09;5074462;28;20211;-66
2023/09/20 11:47:33;;;;;;;4.65;3.45;;;;;;;27.48;43.05;99838.38;5074307;28;20033;-64
2023/09/20 11:50:00;;;;;;;6.20;2.97;;;;;;;27.45;40.18;99845.16;5074299;28;20067;-65
2023/09/20 11:52:27;;;;;;;4.75;2.75;;;;;;;27.48;40.11;99835.66;5060824;28;20053;-64
2023/09/20 11:54:58;;;;;;;5.00;2.72;;;;;;;27.46;39.67;99830.47;5054119;28;20057;-65
2023/09/20 11:57:24;;;;;;;3.97;2.92;;;;;;;27.53;39.90;99836.47;5054640;28;20044;-65
2023/09/20 11:59:50;;;;;;;3.75;2.17;;;;;;;27.60;39.61;99828.03;5054522;28;20772;-65
2023/09/20 12:02:16;;;;;;;4.60;2.20;;;;;;;27.80;36.44;99830.78;5054430;28;20065;-66
2023/09/20 12:04:41;;;;;;;3.20;2.20;;;;;;;27.77;37.01;99817.72;5054213;28;20049;-64
2023/09/20 12:07:08;;;;;;;5.03;2.35;;;;;;;27.74;37.66;99821.00;5054275;28;20342;-66